Atlanta, Georgia
Traffic Map
Current Weather Conditions
Atlanta, Georgia
Broken Clouds
Broken Clouds
63°
Feels Like: 63°
Wind Chill: 63° Ceiling: 2400
Heat Index: 63° Visibility: 10mi
Dew Point: 61° Wind: 6mph
Humidity: 93% Direction: 220° (SW)
Pressure: 29.83in Gusts: 0mph
Raw Report DataKATL 201152Z 22005KT 10SM FEW009 BKN024 17/16 A2983 RMK AO2 SLP094 60000 70034 T01720161 10178 20167 53000
Traffic Incident Summary
Active as of:
Severity:
Category:
InformationThere was an issue retrieving the traffic information for this location. Please try a different location or try again shortly.
Advertisements
Track Severe Weather on mobile